Time;durP1;ratioP1;P1;durP2;ratioP2;P2;SDS_P1;SDS_P2;PMS_P1;PMS_P2;Temp;Humidity;BMP_temperature;BMP_pressure;BME280_temperature;BME280_humidity;BME280_pressure;Samples;Min_cycle;Max_cycle;Signal;HPM_P1;HPM_P2
2020/12/13 00:00:46;;;;;;;12.38;6.20;;;;;;;3.29;87.87;98769.53;4899254;29;20095;-72
2020/12/13 00:03:13;;;;;;;14.35;6.13;;;;;;;3.31;87.03;98767.91;4899262;29;20045;-72
2020/12/13 00:05:42;;;;;;;13.32;6.20;;;;;;;3.12;87.58;98738.25;4899100;29;20047;-72
2020/12/13 00:08:09;;;;;;;14.25;6.10;;;;;;;3.31;87.58;98772.94;4899036;29;20491;-72
2020/12/13 00:10:38;;;;;;;16.85;6.80;;;;;;;3.23;87.86;98769.47;4899086;29;20161;-73
2020/12/13 00:13:06;;;;;;;13.52;6.47;;;;;;;3.22;88.08;98768.63;4898987;29;20376;-73
2020/12/13 00:15:34;;;;;;;14.70;6.75;;;;;;;3.24;87.11;98776.19;4899378;29;20376;-72
2020/12/13 00:18:01;;;;;;;14.35;6.05;;;;;;;3.19;87.44;98777.81;4898889;29;20149;-72
2020/12/13 00:20:30;;;;;;;14.13;6.35;;;;;;;3.18;87.66;98781.16;4899279;29;20048;-72
2020/12/13 00:22:59;;;;;;;13.45;6.10;;;;;;;3.13;88.10;98782.75;4898782;29;20088;-74
2020/12/13 00:25:28;;;;;;;16.15;6.43;;;;;;;3.15;87.79;98787.00;4899175;29;20108;-74
2020/12/13 00:27:55;;;;;;;14.52;6.32;;;;;;;3.05;88.03;98777.59;4897560;29;20060;-73
2020/12/13 00:30:23;;;;;;;15.65;6.50;;;;;;;2.34;87.89;98650.63;4898840;29;20052;-74
2020/12/13 00:32:51;;;;;;;15.25;6.93;;;;;;;3.17;87.74;98797.09;4897947;29;20064;-75
2020/12/13 00:35:19;;;;;;;16.45;7.40;;;;;;;3.20;88.04;98789.56;4898722;29;20124;-72
2020/12/13 00:37:47;;;;;;;15.20;7.13;;;;;;;3.20;88.54;98794.63;4897385;29;20051;-72
2020/12/13 00:40:16;;;;;;;16.27;7.25;;;;;;;3.02;88.33;98770.03;4898584;29;20041;-72
2020/12/13 00:42:43;;;;;;;15.52;6.80;;;;;;;3.23;88.53;98794.66;4898637;29;20123;-72
2020/12/13 00:45:11;;;;;;;17.20;7.50;;;;;;;3.22;88.21;98795.47;4898567;29;20052;-72
2020/12/13 00:47:39;;;;;;;16.88;6.95;;;;;;;3.31;88.22;98798.16;4898980;29;20053;-72
2020/12/13 00:50:07;;;;;;;18.00;7.47;;;;;;;3.28;88.62;98803.16;4897297;29;20041;-72
2020/12/13 00:52:39;;;;;;;18.55;7.55;;;;;;;2.67;87.83;98691.41;4898509;29;20041;-72
2020/12/13 00:55:08;;;;;;;19.20;7.85;;;;;;;3.36;88.75;98809.13;4898430;29;20052;-72
2020/12/13 00:58:13;;;;;;;18.63;8.40;;;;;;;3.29;88.22;98799.78;5018628;23;20026;-75
2020/12/13 01:00:42;;;;;;;17.05;7.32;;;;;;;3.30;88.33;98804.00;4897800;29;20053;-73
2020/12/13 01:03:16;;;;;;;17.60;7.73;;;;;;;3.33;88.27;98801.53;4898687;29;20108;-75
2020/12/13 01:05:53;;;;;;;16.27;7.93;;;;;;;3.21;88.26;98792.16;4898249;29;20044;-73
2020/12/13 01:08:21;;;;;;;14.80;7.28;;;;;;;3.26;87.77;98807.34;4898429;29;20060;-72
2020/12/13 01:10:48;;;;;;;18.25;7.40;;;;;;;3.30;88.28;98801.50;4898174;29;20055;-73
2020/12/13 01:13:16;;;;;;;19.10;8.05;;;;;;;3.37;87.87;98804.13;4898037;29;20127;-73
2020/12/13 01:15:45;;;;;;;21.65;7.78;;;;;;;3.40;88.77;98808.38;4898522;29;20048;-73
2020/12/13 01:18:13;;;;;;;17.38;7.63;;;;;;;3.35;88.00;98799.88;4898022;29;20057;-73
2020/12/13 01:20:44;;;;;;;21.45;7.32;;;;;;;3.42;87.78;98819.31;4898662;29;20044;-72
2020/12/13 01:23:14;;;;;;;17.92;7.53;;;;;;;3.39;88.07;98811.69;4898313;29;20472;-74
2020/12/13 01:25:43;;;;;;;16.33;7.07;;;;;;;3.38;88.51;98815.06;4898594;29;20056;-74
2020/12/13 01:28:10;;;;;;;14.18;7.07;;;;;;;3.38;88.33;98815.88;4898135;29;20096;-72
2020/12/13 01:30:41;;;;;;;17.00;7.68;;;;;;;3.42;88.17;98816.78;4898290;29;20578;-72
2020/12/13 01:33:13;;;;;;;16.10;6.85;;;;;;;3.36;88.10;98791.47;4898438;29;20075;-72
2020/12/13 01:35:44;;;;;;;14.20;7.30;;;;;;;3.20;88.17;98764.38;4898252;29;20053;-72
2020/12/13 01:38:15;;;;;;;17.40;7.60;;;;;;;3.50;88.34;98814.38;4898277;29;20414;-73
2020/12/13 01:40:46;;;;;;;19.90;7.75;;;;;;;3.45;88.49;98814.31;4898272;29;20542;-74
2020/12/13 01:43:16;;;;;;;18.75;7.88;;;;;;;3.45;88.65;98816.84;4898669;29;20076;-75
2020/12/13 01:45:44;;;;;;;16.58;8.18;;;;;;;3.44;88.08;98812.59;4902344;29;20057;-74
2020/12/13 01:48:17;;;;;;;17.40;7.45;;;;;;;3.33;88.14;98806.59;4901641;29;20123;-72
2020/12/13 01:50:55;;;;;;;16.55;6.95;;;;;;;3.29;88.24;98807.34;4901763;29;20049;-72
2020/12/13 01:53:25;;;;;;;15.20;7.18;;;;;;;3.15;88.35;98781.09;4900619;29;20045;-73
2020/12/13 01:55:56;;;;;;;15.67;8.03;;;;;;;3.38;88.41;98804.97;4901775;29;20048;-73
2020/12/13 01:58:26;;;;;;;16.13;7.20;;;;;;;3.43;88.51;98813.44;4901880;29;20064;-73
2020/12/13 02:01:00;;;;;;;18.17;8.32;;;;;;;3.18;88.02;98766.88;4901543;29;20057;-73
2020/12/13 02:03:33;;;;;;;17.90;7.90;;;;;;;3.51;88.07;98811.84;4901520;29;20049;-73
2020/12/13 02:06:06;;;;;;;17.60;7.93;;;;;;;3.51;88.26;98806.81;4901458;29;20048;-73
2020/12/13 02:08:37;;;;;;;20.05;8.00;;;;;;;3.45;88.02;98796.66;4901323;29;20048;-73
2020/12/13 02:11:08;;;;;;;;;;;;;;;3.57;88.33;98811.94;4901838;29;20049;-73
2020/12/13 02:13:36;;;;;;;16.02;7.60;;;;;;;3.49;88.13;98792.50;4901265;29;19972;-73
2020/12/13 02:16:04;;;;;;;17.60;7.63;;;;;;;3.55;87.78;98806.00;4901209;29;20052;-73
2020/12/13 02:18:33;;;;;;;19.08;7.88;;;;;;;2.73;88.06;98671.34;4901367;29;20132;-72
2020/12/13 02:21:03;;;;;;;20.38;8.43;;;;;;;3.53;88.05;98809.38;4901126;29;20067;-72
2020/12/13 02:23:33;;;;;;;19.50;8.25;;;;;;;3.46;87.90;98802.53;4901351;29;20569;-73
2020/12/13 02:26:00;;;;;;;18.50;7.72;;;;;;;3.56;88.00;98809.41;4900918;29;20388;-72
2020/12/13 02:28:28;;;;;;;20.42;8.20;;;;;;;3.54;88.36;98811.91;4899817;29;20049;-74
2020/12/13 02:30:59;;;;;;;15.40;7.32;;;;;;;3.54;88.14;98803.50;4901153;29;20045;-72
2020/12/13 02:33:27;;;;;;;20.77;9.45;;;;;;;3.57;87.98;98804.38;4901191;29;20503;-73
2020/12/13 02:35:57;;;;;;;18.33;7.78;;;;;;;3.60;88.57;98811.97;4900794;29;20051;-74
2020/12/13 02:38:31;;;;;;;19.30;7.97;;;;;;;3.59;88.46;98815.34;4901245;29;20063;-74
2020/12/13 02:41:06;;;;;;;17.55;8.20;;;;;;;3.58;87.91;98818.69;4901051;29;20116;-72
2020/12/13 02:43:34;;;;;;;21.00;8.95;;;;;;;3.49;87.88;98813.53;4900871;29;20077;-72
2020/12/13 02:46:04;;;;;;;21.42;7.93;;;;;;;3.44;88.62;98797.47;4900604;29;20406;-74
2020/12/13 02:48:33;;;;;;;20.08;8.38;;;;;;;3.52;87.98;98813.56;4900656;29;20068;-71
2020/12/13 02:51:00;;;;;;;20.83;8.80;;;;;;;3.48;88.36;98821.91;4900919;29;20124;-74
2020/12/13 02:53:31;;;;;;;20.50;8.65;;;;;;;3.51;87.93;98821.94;4900666;29;20049;-74
2020/12/13 02:56:00;;;;;;;24.63;8.55;;;;;;;3.50;88.34;98822.78;4899856;29;20063;-72
2020/12/13 02:58:29;;;;;;;22.33;9.32;;;;;;;3.42;88.64;98815.94;4899726;29;20045;-75
2020/12/13 03:00:59;;;;;;;22.10;8.95;;;;;;;3.46;88.67;98828.59;4900478;29;20060;-73
2020/12/13 03:03:30;;;;;;;18.75;7.93;;;;;;;3.49;88.78;98818.56;4900533;29;20048;-74
2020/12/13 03:05:57;;;;;;;23.38;8.20;;;;;;;3.47;88.95;98815.19;4900880;29;20410;-73
2020/12/13 03:08:29;;;;;;;21.92;8.80;;;;;;;3.51;88.98;98827.00;4900323;29;20127;-74
2020/12/13 03:10:57;;;;;;;22.65;8.57;;;;;;;3.49;88.97;98830.31;4900306;29;20056;-72
2020/12/13 03:13:24;;;;;;;20.67;8.77;;;;;;;3.51;88.88;98824.47;4900392;29;20526;-72
2020/12/13 03:15:54;;;;;;;21.23;8.07;;;;;;;3.47;88.80;98816.84;4900379;29;20041;-73
2020/12/13 03:18:22;;;;;;;21.52;8.68;;;;;;;3.57;88.52;98826.22;4900142;29;20075;-71
2020/12/13 03:20:50;;;;;;;22.10;9.23;;;;;;;3.58;89.29;98838.84;4900088;29;20054;-72
2020/12/13 03:23:20;;;;;;;20.13;8.80;;;;;;;3.57;89.16;98842.22;4900312;29;20048;-71
2020/12/13 03:25:49;;;;;;;23.45;9.60;;;;;;;3.49;89.21;98843.78;4900124;29;20044;-72
2020/12/13 03:28:19;;;;;;;25.00;9.80;;;;;;;3.49;88.64;98847.97;4900042;29;20060;-73
2020/12/13 03:30:55;;;;;;;28.02;9.10;;;;;;;3.52;88.94;98848.88;4899998;29;20105;-72
2020/12/13 03:33:27;;;;;;;23.67;9.18;;;;;;;3.53;88.64;98842.16;4899767;29;20045;-71
2020/12/13 03:35:58;;;;;;;24.20;9.68;;;;;;;3.53;88.79;98844.69;4899867;29;20056;-71
2020/12/13 03:38:26;;;;;;;23.48;8.90;;;;;;;3.58;89.08;98843.91;4899774;29;20056;-72
2020/12/13 03:40:53;;;;;;;24.58;9.15;;;;;;;3.62;89.16;98848.19;4898472;29;20052;-74
2020/12/13 03:43:23;;;;;;;23.77;9.15;;;;;;;3.63;88.45;98852.38;4899681;29;20061;-73
2020/12/13 03:45:53;;;;;;;20.83;8.38;;;;;;;3.59;89.10;98855.69;4899674;29;20052;-71
2020/12/13 03:48:25;;;;;;;21.70;9.20;;;;;;;3.53;88.53;98835.41;4900088;29;20135;-74
2020/12/13 03:50:53;;;;;;;21.38;8.93;;;;;;;3.61;88.48;98856.56;4899620;29;20061;-73
2020/12/13 03:53:24;;;;;;;23.80;8.60;;;;;;;3.47;88.60;98835.34;4899562;29;20055;-73
2020/12/13 03:55:53;;;;;;;22.75;8.63;;;;;;;3.66;88.74;98860.00;4899574;29;20510;-72
2020/12/13 03:58:21;;;;;;;21.48;8.38;;;;;;;3.64;88.68;98863.31;4899037;29;20533;-74
2020/12/13 04:00:48;;;;;;;21.17;8.90;;;;;;;3.64;88.33;98864.19;4899405;29;20049;-73
2020/12/13 04:03:19;;;;;;;25.90;9.23;;;;;;;3.60;88.70;98857.38;4899358;29;20073;-72
2020/12/13 04:05:51;;;;;;;25.77;9.88;;;;;;;3.69;88.19;98865.09;4899275;29;20048;-70
2020/12/13 04:08:22;;;;;;;22.10;8.57;;;;;;;3.65;88.71;98868.38;4899352;29;20143;-74
2020/12/13 04:10:53;;;;;;;20.60;8.95;;;;;;;3.69;88.82;98860.03;4899383;29;20056;-71
2020/12/13 04:13:24;;;;;;;22.52;10.18;;;;;;;3.71;88.08;98871.00;4899220;29;20495;-73
2020/12/13 04:15:55;;;;;;;23.65;9.30;;;;;;;3.68;88.92;98876.00;4899201;29;20059;-71
2020/12/13 04:18:29;;;;;;;24.80;9.55;;;;;;;3.64;88.69;98866.69;4899229;29;20057;-71
2020/12/13 04:21:00;;;;;;;22.65;9.02;;;;;;;3.72;88.54;98879.41;4899300;29;20459;-74
2020/12/13 04:23:31;;;;;;;22.15;9.10;;;;;;;3.66;88.51;98882.69;4899242;29;20049;-71
2020/12/13 04:26:01;;;;;;;21.48;8.05;;;;;;;3.67;87.99;98874.28;4899032;29;20053;-74
2020/12/13 04:28:32;;;;;;;23.88;9.65;;;;;;;3.62;88.34;98873.41;4898877;29;20061;-71
2020/12/13 04:31:03;;;;;;;19.90;8.38;;;;;;;3.59;88.40;98878.41;4898980;29;20045;-71
2020/12/13 04:33:34;;;;;;;23.50;9.18;;;;;;;3.44;88.17;98859.66;4898949;29;20079;-74
2020/12/13 04:36:07;;;;;;;22.67;8.98;;;;;;;3.54;87.98;98872.44;4898803;29;20570;-72
2020/12/13 04:38:37;;;;;;;21.70;8.45;;;;;;;3.51;87.86;98858.94;4898980;29;20554;-72
2020/12/13 04:41:05;;;;;;;22.55;8.10;;;;;;;3.70;88.50;98884.44;4899251;29;20056;-74
2020/12/13 04:43:36;;;;;;;20.00;8.20;;;;;;;3.73;88.09;98891.19;4898866;29;20044;-72
2020/12/13 04:46:07;;;;;;;21.35;7.97;;;;;;;3.70;87.54;98884.44;4898704;29;20406;-74
2020/12/13 04:48:40;;;;;;;19.98;8.45;;;;;;;3.68;88.44;98886.09;4898816;29;20439;-75
2020/12/13 04:51:12;;;;;;;19.77;7.90;;;;;;;3.66;88.11;98876.81;4898709;29;20104;-72
2020/12/13 04:53:40;;;;;;;17.10;6.43;;;;;;;3.66;87.79;98887.75;4898795;29;20045;-74
2020/12/13 04:56:11;;;;;;;16.83;7.03;;;;;;;3.67;88.05;98896.16;4898595;29;20403;-71
2020/12/13 04:58:40;;;;;;;16.60;6.65;;;;;;;3.68;87.61;98895.31;4898538;29;20067;-72
2020/12/13 05:01:10;;;;;;;15.38;6.65;;;;;;;3.54;87.16;98876.63;4897472;29;20040;-72
2020/12/13 05:03:39;;;;;;;12.35;5.93;;;;;;;3.66;87.15;98900.34;4898525;29;20084;-72
2020/12/13 05:06:09;;;;;;;13.73;5.85;;;;;;;3.64;87.10;98888.56;4898509;29;20047;-72
2020/12/13 05:08:41;;;;;;;12.88;5.30;;;;;;;3.59;87.27;98880.06;4898518;29;20053;-74
2020/12/13 05:11:16;;;;;;;12.40;5.30;;;;;;;3.56;86.76;98885.91;4898508;29;20559;-73
2020/12/13 05:13:44;;;;;;;12.48;5.68;;;;;;;3.61;86.48;98889.34;4898535;29;20128;-71
2020/12/13 05:16:15;;;;;;;12.20;5.45;;;;;;;3.68;86.85;98896.19;4898192;29;20395;-71
2020/12/13 05:18:44;;;;;;;11.35;5.53;;;;;;;3.69;86.36;98907.13;4899819;29;20052;-74
2020/12/13 05:21:18;;;;;;;11.00;5.53;;;;;;;3.61;86.17;98894.41;4902192;29;20206;-74
2020/12/13 05:23:47;;;;;;;13.80;5.35;;;;;;;3.63;86.33;98896.94;4902286;29;20048;-74
2020/12/13 05:26:19;;;;;;;12.10;5.80;;;;;;;3.70;85.88;98907.13;4902333;29;20073;-71
2020/12/13 05:28:49;;;;;;;11.73;5.57;;;;;;;3.58;85.80;98893.50;4902155;29;20052;-74
2020/12/13 05:31:21;;;;;;;12.97;6.40;;;;;;;3.70;85.94;98914.69;4902090;29;20041;-72
2020/12/13 05:33:52;;;;;;;11.70;5.15;;;;;;;3.65;84.58;98911.25;4900967;29;20104;-74
2020/12/13 05:36:22;;;;;;;;;;;;;;;3.65;85.28;98916.31;4902409;29;20060;-74
2020/12/13 05:38:51;;;;;;;12.60;5.40;;;;;;;3.62;84.47;98916.28;4902252;29;20403;-74
2020/12/13 05:41:22;;;;;;;15.07;6.55;;;;;;;3.69;84.91;98917.22;4901868;29;20072;-72
2020/12/13 05:43:56;;;;;;;16.77;7.10;;;;;;;3.69;84.35;98918.06;4900764;29;20085;-71
2020/12/13 05:46:43;;;;;;;17.10;7.55;;;;;;;3.74;84.61;98921.47;4901786;29;20060;-72
2020/12/13 05:49:27;;;;;;;16.05;6.97;;;;;;;3.70;84.41;98931.50;4902114;29;20049;-74
2020/12/13 05:51:59;;;;;;;17.13;6.97;;;;;;;3.73;85.05;98934.94;4901685;29;20048;-72
2020/12/13 05:54:32;;;;;;;14.23;6.45;;;;;;;3.39;84.25;98878.09;4901698;29;20059;-71
2020/12/13 05:57:01;;;;;;;15.65;7.53;;;;;;;3.60;84.71;98917.91;4901872;29;20558;-72
2020/12/13 05:59:29;;;;;;;18.92;7.65;;;;;;;3.65;84.13;98936.50;4900703;29;20064;-72
2020/12/13 06:02:01;;;;;;;19.95;8.25;;;;;;;3.66;84.26;98937.34;4900426;29;20052;-71
2020/12/13 06:04:32;;;;;;;21.23;9.10;;;;;;;3.60;83.95;98927.19;4901543;29;20064;-71
2020/12/13 06:07:06;;;;;;;21.73;8.88;;;;;;;3.68;84.67;98946.63;4901448;29;20037;-71
2020/12/13 06:09:36;;;;;;;20.60;9.02;;;;;;;3.62;84.29;98951.59;4901387;29;20052;-73
2020/12/13 06:12:04;;;;;;;21.25;8.85;;;;;;;3.66;84.14;98949.97;4901370;29;20084;-73
2020/12/13 06:14:36;;;;;;;22.45;8.45;;;;;;;3.57;83.66;98933.03;4901288;29;20455;-71
2020/12/13 06:17:07;;;;;;;20.38;8.02;;;;;;;3.67;83.68;98949.16;4901331;29;20049;-71
2020/12/13 06:19:37;;;;;;;20.05;8.40;;;;;;;3.68;84.23;98946.63;4901202;29;20414;-72
2020/12/13 06:22:13;;;;;;;20.70;8.77;;;;;;;3.69;83.92;98945.81;4901435;29;20410;-72
2020/12/13 06:24:45;;;;;;;21.60;8.50;;;;;;;3.59;83.54;98923.81;4901171;29;20052;-73
2020/12/13 06:27:16;;;;;;;23.80;10.15;;;;;;;3.59;84.28;98936.41;4901178;29;20073;-72
2020/12/13 06:29:50;;;;;;;22.88;10.55;;;;;;;3.71;84.13;98951.72;4901272;29;20048;-72
2020/12/13 06:32:21;;;;;;;21.42;8.93;;;;;;;3.69;84.37;98957.59;4901102;29;20081;-72
2020/12/13 06:34:53;;;;;;;23.48;9.57;;;;;;;3.70;83.27;98962.63;4901014;29;20051;-73
2020/12/13 06:37:26;;;;;;;22.00;9.05;;;;;;;3.71;83.95;98966.88;4901158;29;20053;-72
2020/12/13 06:39:56;;;;;;;21.40;8.77;;;;;;;3.64;83.73;98954.13;4900878;29;20157;-73
2020/12/13 06:42:27;;;;;;;20.25;8.60;;;;;;;3.66;83.60;98958.38;4900863;29;20056;-72
2020/12/13 06:45:03;;;;;;;22.98;9.20;;;;;;;3.66;83.32;98973.53;4900800;29;20060;-73
2020/12/13 06:47:37;;;;;;;19.27;8.23;;;;;;;3.71;83.30;98982.00;4900820;29;20055;-71
2020/12/13 06:50:06;;;;;;;16.52;7.28;;;;;;;3.65;84.15;98966.75;4900675;29;20680;-71
2020/12/13 06:52:34;;;;;;;16.05;7.00;;;;;;;3.72;83.54;98983.69;4899460;29;20040;-72
2020/12/13 06:55:04;;;;;;;16.10;7.40;;;;;;;3.72;83.37;98982.88;4900622;29;20476;-73
2020/12/13 06:57:33;;;;;;;14.85;6.38;;;;;;;3.67;83.66;98985.28;4900604;29;20072;-72
2020/12/13 07:00:04;;;;;;;;;;;;;;;3.66;83.61;98991.19;4900133;29;20053;-71
2020/12/13 07:02:43;;;;;;;11.02;5.15;;;;;;;3.69;83.79;98993.75;4900484;29;19923;-72
2020/12/13 07:05:17;;;;;;;11.57;5.20;;;;;;;3.67;83.26;98990.34;4900503;29;20052;-73
2020/12/13 07:07:48;;;;;;;11.27;4.95;;;;;;;3.68;83.99;98993.72;4900579;29;20094;-72
2020/12/13 07:10:20;;;;;;;9.23;5.05;;;;;;;3.57;83.60;98993.56;4900298;29;20045;-74
2020/12/13 07:12:55;;;;;;;10.45;5.47;;;;;;;3.63;83.64;98987.75;4900367;29;20044;-74
2020/12/13 07:15:33;;;;;;;11.55;5.75;;;;;;;3.66;83.52;98997.91;4900359;29;20060;-72
2020/12/13 07:18:07;;;;;;;10.82;5.30;;;;;;;3.66;83.44;98993.72;4900380;29;20128;-73
2020/12/13 07:20:36;;;;;;;11.10;5.38;;;;;;;3.58;83.77;98994.38;4900325;29;20503;-72
2020/12/13 07:23:07;;;;;;;12.02;6.28;;;;;;;3.64;83.71;99005.44;4900254;29;20048;-71
2020/12/13 07:25:40;;;;;;;12.43;5.50;;;;;;;3.63;83.06;98998.69;4899985;29;20521;-73
2020/12/13 07:28:09;;;;;;;11.00;4.75;;;;;;;3.65;83.28;98999.56;4900048;29;20447;-72
2020/12/13 07:30:37;;;;;;;11.27;5.03;;;;;;;3.64;83.31;99015.53;4899790;29;20041;-72
2020/12/13 07:33:05;;;;;;;12.20;5.32;;;;;;;3.67;83.24;99013.03;4899868;29;20041;-73
2020/12/13 07:35:33;;;;;;;11.18;5.07;;;;;;;3.58;82.82;99002.81;4900030;29;20049;-72
2020/12/13 07:38:02;;;;;;;11.10;5.38;;;;;;;3.67;82.88;99014.75;4899816;29;20517;-71
2020/12/13 07:40:33;;;;;;;13.23;5.70;;;;;;;3.66;82.82;99013.03;4899913;29;20056;-71
2020/12/13 07:43:02;;;;;;;9.30;4.55;;;;;;;3.57;83.02;99002.81;4899555;29;20064;-71
2020/12/13 07:45:32;;;;;;;10.80;4.13;;;;;;;3.67;83.55;99018.09;4899705;29;20060;-72
2020/12/13 07:48:05;;;;;;;16.55;6.95;;;;;;;3.70;83.30;99015.63;4899665;29;20060;-73
2020/12/13 07:50:43;;;;;;;60.05;22.75;;;;;;;3.69;83.75;99019.00;4899500;29;20063;-73
2020/12/13 07:53:22;;;;;;;14.82;6.88;;;;;;;3.66;83.66;99023.97;4899765;29;20107;-72
2020/12/13 07:55:52;;;;;;;11.88;6.00;;;;;;;3.67;83.34;99018.09;4899522;29;20074;-72
2020/12/13 07:58:21;;;;;;;13.35;6.15;;;;;;;3.61;83.23;99007.91;4899550;29;20132;-72
2020/12/13 08:00:49;;;;;;;10.57;5.13;;;;;;;3.72;82.84;99011.44;4899487;29;20044;-73
2020/12/13 08:03:20;;;;;;;10.88;5.07;;;;;;;3.63;83.19;99023.91;4899482;29;20291;-72
2020/12/13 08:05:51;;;;;;;12.70;6.43;;;;;;;3.63;83.34;99028.09;4899341;29;20105;-72
2020/12/13 08:08:19;;;;;;;13.38;6.85;;;;;;;3.51;83.08;99013.63;4898941;29;20052;-72
2020/12/13 08:10:47;;;;;;;16.65;7.90;;;;;;;3.61;82.86;99033.16;4899113;29;20068;-70
2020/12/13 08:13:18;;;;;;;17.88;8.45;;;;;;;3.56;83.29;99041.44;4899053;29;20044;-70
2020/12/13 08:15:49;;;;;;;17.08;9.05;;;;;;;3.45;83.83;99048.84;4899220;29;20072;-71
2020/12/13 08:18:17;;;;;;;16.45;8.23;;;;;;;3.50;83.46;99042.22;4892279;29;20056;-72
2020/12/13 08:20:53;;;;;;;19.00;8.57;;;;;;;3.51;84.06;99043.91;4888123;29;20040;-72
2020/12/13 08:23:22;;;;;;;19.55;9.27;;;;;;;3.61;83.96;99050.81;4897409;29;20104;-72
2020/12/13 08:25:49;;;;;;;19.55;8.30;;;;;;;3.53;83.69;99054.84;4897770;29;20049;-72
2020/12/13 08:28:18;;;;;;;16.38;7.80;;;;;;;3.57;83.51;99050.72;4897018;29;20065;-74
2020/12/13 08:30:45;;;;;;;16.67;8.20;;;;;;;3.37;83.77;99032.72;4898389;29;20052;-73
2020/12/13 08:33:14;;;;;;;14.88;8.05;;;;;;;3.50;83.99;99059.88;4895033;29;20068;-71
2020/12/13 08:35:42;;;;;;;15.88;7.80;;;;;;;3.56;84.34;99057.44;4890126;29;20049;-72
2020/12/13 08:38:11;;;;;;;14.95;7.25;;;;;;;3.49;83.72;99040.50;4885538;29;20045;-73
2020/12/13 08:40:39;;;;;;;16.40;7.57;;;;;;;3.47;84.10;99036.25;4879395;29;20048;-73
2020/12/13 08:43:10;;;;;;;17.50;8.77;;;;;;;3.67;84.27;99066.03;4885515;29;20165;-73
2020/12/13 08:45:38;;;;;;;18.38;8.02;;;;;;;3.57;84.00;99048.22;4886189;29;20396;-73
2020/12/13 08:48:28;;;;;;;17.00;7.38;;;;;;;3.66;83.21;99066.88;4886769;29;20049;-70
2020/12/13 08:51:02;;;;;;;16.08;8.27;;;;;;;3.58;83.48;99070.06;4895200;29;20103;-72
2020/12/13 08:53:30;;;;;;;16.83;7.28;;;;;;;3.62;83.58;99070.19;4896741;29;20060;-72
2020/12/13 08:56:02;;;;;;;14.68;7.25;;;;;;;3.70;83.64;99066.09;4889193;29;20052;-73
2020/12/13 08:58:51;;;;;;;15.40;7.68;;;;;;;3.67;83.73;99072.78;4889366;29;20418;-75
2020/12/13 09:01:23;;;;;;;17.88;7.88;;;;;;;3.49;83.13;99040.50;4888072;29;20128;-72
2020/12/13 09:03:53;;;;;;;16.70;7.82;;;;;;;3.69;83.33;99058.50;4889194;29;20040;-71
2020/12/13 09:06:25;;;;;;;18.70;7.73;;;;;;;3.72;83.63;99074.53;4876597;29;20080;-72
2020/12/13 09:08:53;;;;;;;16.65;7.60;;;;;;;3.77;82.96;99077.13;4881486;29;20056;-71
2020/12/13 09:11:27;;;;;;;16.20;8.30;;;;;;;3.75;83.26;99078.78;4887921;29;20443;-71
2020/12/13 09:13:55;;;;;;;16.50;8.43;;;;;;;3.83;83.63;99082.28;4890484;29;20076;-71
2020/12/13 09:16:28;;;;;;;17.48;8.32;;;;;;;3.95;82.92;99088.38;4879402;29;20128;-71
2020/12/13 09:19:03;;;;;;;19.55;8.73;;;;;;;3.91;82.76;99086.63;4890447;29;20048;-72
2020/12/13 09:21:36;;;;;;;20.70;8.43;;;;;;;3.88;83.35;99083.22;4891752;29;20112;-73
2020/12/13 09:24:06;;;;;;;16.90;8.20;;;;;;;3.88;82.81;99086.59;4890852;29;20503;-71
2020/12/13 09:26:34;;;;;;;23.75;8.93;;;;;;;3.89;83.24;99093.31;4891629;29;20082;-73
2020/12/13 09:29:02;;;;;;;23.27;9.82;;;;;;;3.76;82.75;99088.91;4889714;29;20124;-74
2020/12/13 09:31:29;;;;;;;18.10;8.10;;;;;;;3.78;82.51;99092.31;4890115;29;20079;-73
2020/12/13 09:33:57;;;;;;;20.52;8.57;;;;;;;3.78;82.22;99089.78;4895302;29;20080;-73
2020/12/13 09:36:27;;;;;;;22.53;9.63;;;;;;;3.63;82.69;99069.34;4883818;29;20068;-73
2020/12/13 09:38:54;;;;;;;18.77;8.30;;;;;;;3.80;82.38;99092.31;4879203;29;20045;-73
2020/12/13 09:41:22;;;;;;;19.88;8.48;;;;;;;3.87;82.03;99100.00;4879116;29;20511;-72
2020/12/13 09:43:50;;;;;;;17.42;7.85;;;;;;;3.79;82.18;99080.53;4893460;29;20132;-73
2020/12/13 09:46:19;;;;;;;20.02;7.93;;;;;;;3.95;82.15;99088.38;4878919;29;20083;-73
2020/12/13 09:48:47;;;;;;;21.27;9.18;;;;;;;3.95;81.75;99098.47;4879055;29;20075;-73
2020/12/13 09:51:17;;;;;;;18.90;8.77;;;;;;;3.83;81.67;99085.66;4878952;29;20049;-74
2020/12/13 09:53:46;;;;;;;19.15;8.77;;;;;;;3.83;81.84;99093.22;4879072;29;20519;-72
2020/12/13 09:56:16;;;;;;;15.65;7.97;;;;;;;3.88;81.75;99101.72;4878611;29;20087;-72
2020/12/13 09:58:44;;;;;;;18.55;8.45;;;;;;;3.94;82.56;99101.81;4878620;29;20065;-73
2020/12/13 10:01:11;;;;;;;16.98;8.13;;;;;;;4.00;82.01;99104.44;4878103;29;20133;-73
2020/12/13 10:03:40;;;;;;;17.65;8.88;;;;;;;4.01;81.90;99093.50;4878582;29;20170;-73
2020/12/13 10:11:11;;;;;;;17.13;8.07;;;;;;;3.74;81.78;99045.13;4881637;29;20373;-73
2020/12/13 10:13:39;;;;;;;20.45;12.57;;;;;;;4.05;81.86;99095.25;4881630;29;20053;-73
2020/12/13 10:16:09;;;;;;;17.25;7.65;;;;;;;3.91;81.96;99086.63;4881842;29;20396;-72
2020/12/13 10:18:39;;;;;;;15.90;7.50;;;;;;;4.01;81.90;99096.03;4881581;29;20518;-73
2020/12/13 10:21:07;;;;;;;17.75;7.43;;;;;;;4.05;81.90;99100.28;4881513;29;20048;-72
2020/12/13 10:23:35;;;;;;;18.38;7.97;;;;;;;3.94;81.71;99095.91;4881501;29;20052;-73
2020/12/13 10:26:03;;;;;;;15.45;7.65;;;;;;;3.95;82.31;99101.00;4881879;29;20140;-72
2020/12/13 10:28:32;;;;;;;16.42;7.60;;;;;;;3.83;81.38;99083.13;4881330;29;20120;-72
2020/12/13 10:31:00;;;;;;;15.82;8.05;;;;;;;3.94;81.32;99106.88;4881467;29;20045;-73
2020/12/13 10:33:27;;;;;;;16.83;7.57;;;;;;;3.95;81.70;99098.47;4881334;29;20045;-73
2020/12/13 10:35:55;;;;;;;19.67;7.68;;;;;;;3.99;81.35;99092.66;4892283;29;20128;-72
2020/12/13 10:38:23;;;;;;;19.02;8.10;;;;;;;4.06;81.30;99096.09;4900241;29;20053;-73
2020/12/13 10:40:50;;;;;;;16.13;7.57;;;;;;;4.04;81.45;99092.72;4899286;29;20140;-73
2020/12/13 10:43:19;;;;;;;14.93;7.28;;;;;;;4.07;81.16;99098.66;4900466;29;20049;-73
2020/12/13 10:45:47;;;;;;;17.67;8.50;;;;;;;4.03;80.97;99075.88;4900028;29;20147;-73
2020/12/13 10:48:20;;;;;;;20.85;9.85;;;;;;;4.08;80.59;99090.25;4899596;29;20053;-74
2020/12/13 10:50:48;;;;;;;18.90;8.13;;;;;;;4.04;81.50;99088.53;4899444;29;20479;-72
2020/12/13 10:53:15;;;;;;;17.63;7.80;;;;;;;4.13;81.04;99092.03;4899953;29;20072;-74
2020/12/13 10:55:46;;;;;;;16.88;8.48;;;;;;;4.16;80.76;99090.38;4899035;29;20163;-75
2020/12/13 10:58:34;;;;;;;17.85;7.95;;;;;;;4.22;81.03;99087.09;4897876;29;20623;-72
2020/12/13 11:01:04;;;;;;;17.47;8.83;;;;;;;4.14;81.19;99086.97;4898392;29;20055;-72
2020/12/13 11:03:32;;;;;;;17.33;8.55;;;;;;;4.04;80.48;99093.56;4898409;29;20291;-74
2020/12/13 11:06:00;;;;;;;16.25;8.73;;;;;;;4.06;81.63;99088.53;4898209;29;20052;-74
2020/12/13 11:08:28;;;;;;;15.55;7.97;;;;;;;4.04;80.91;99093.56;4897346;29;20041;-74
2020/12/13 11:10:56;;;;;;;23.67;8.20;;;;;;;4.02;80.90;99064.94;4896080;29;20063;-74
2020/12/13 11:13:25;;;;;;;16.97;7.60;;;;;;;4.10;80.90;99081.88;4896128;29;20056;-73
2020/12/13 11:15:56;;;;;;;18.20;7.10;;;;;;;4.20;81.19;99084.53;4894958;29;20284;-75
2020/12/13 11:18:40;;;;;;;18.10;7.45;;;;;;;4.31;80.62;99082.19;4895808;29;20056;-71
2020/12/13 11:21:11;;;;;;;13.55;7.03;;;;;;;4.33;80.42;99085.56;4803106;29;20054;-73
2020/12/13 11:23:40;;;;;;;17.20;7.65;;;;;;;4.32;80.11;99084.72;4803402;29;20502;-73
2020/12/13 11:26:11;;;;;;;19.42;8.43;;;;;;;4.21;80.29;99075.28;4804175;29;20509;-74
2020/12/13 11:28:40;;;;;;;14.57;7.18;;;;;;;4.20;79.83;99093.81;4803399;29;20039;-71
2020/12/13 11:31:07;;;;;;;25.67;8.98;;;;;;;4.26;79.90;99096.41;4803249;29;20146;-69
2020/12/13 11:33:35;;;;;;;15.73;8.23;;;;;;;4.35;79.96;99094.88;4803695;29;20082;-66
2020/12/13 11:36:04;;;;;;;14.57;7.35;;;;;;;4.42;79.49;99090.75;4814133;29;20513;-68
2020/12/13 11:38:32;;;;;;;18.05;6.93;;;;;;;4.36;79.63;99085.63;4820424;29;20047;-69
2020/12/13 11:40:59;;;;;;;13.57;6.38;;;;;;;4.24;78.77;99082.91;4808966;29;20069;-70
2020/12/13 11:43:27;;;;;;;11.48;6.53;;;;;;;4.20;78.49;99094.63;4820190;29;20061;-69
2020/12/13 11:45:55;;;;;;;13.90;6.72;;;;;;;4.19;79.03;99092.09;4822438;29;20094;-69
2020/12/13 11:48:26;;;;;;;11.38;6.15;;;;;;;4.17;78.44;99081.13;4823730;29;20133;-69
2020/12/13 11:50:54;;;;;;;12.13;6.13;;;;;;;4.28;78.43;99089.69;4823774;29;20074;-70
2020/12/13 11:53:23;;;;;;;11.95;5.88;;;;;;;4.32;78.30;99073.78;4823825;29;20048;-70